sensor_id;sensor_type;location;lat;lon;timestamp;temperature;humidity
30467;DHT22;17258;52.560;13.046;2022-11-20T00:02:11;5.60;64.30
30467;DHT22;17258;52.560;13.046;2022-11-20T00:12:11;5.50;64.30
30467;DHT22;17258;52.560;13.046;2022-11-20T00:22:12;5.50;64.30
30467;DHT22;17258;52.560;13.046;2022-11-20T00:32:13;5.50;64.40
30467;DHT22;17258;52.560;13.046;2022-11-20T00:42:13;5.50;64.40
30467;DHT22;17258;52.560;13.046;2022-11-20T00:52:14;5.40;64.30
30467;DHT22;17258;52.560;13.046;2022-11-20T01:02:14;5.50;64.50
30467;DHT22;17258;52.560;13.046;2022-11-20T01:12:16;5.40;64.40
30467;DHT22;17258;52.560;13.046;2022-11-20T01:22:17;5.50;64.40
30467;DHT22;17258;52.560;13.046;2022-11-20T01:32:17;5.40;64.30
30467;DHT22;17258;52.560;13.046;2022-11-20T01:42:18;5.40;64.40
30467;DHT22;17258;52.560;13.046;2022-11-20T01:52:46;5.40;64.40
30467;DHT22;17258;52.560;13.046;2022-11-20T02:02:57;5.40;64.50
30467;DHT22;17258;52.560;13.046;2022-11-20T02:12:59;5.50;64.40
30467;DHT22;17258;52.560;13.046;2022-11-20T02:33:33;5.40;64.20
30467;DHT22;17258;52.560;13.046;2022-11-20T02:43:34;5.40;64.20
30467;DHT22;17258;52.560;13.046;2022-11-20T02:53:35;5.40;64.20
30467;DHT22;17258;52.560;13.046;2022-11-20T03:03:35;5.40;64.20
30467;DHT22;17258;52.560;13.046;2022-11-20T03:13:36;5.30;64.20
30467;DHT22;17258;52.560;13.046;2022-11-20T03:23:37;5.30;64.20
30467;DHT22;17258;52.560;13.046;2022-11-20T03:33:39;5.30;64.10
30467;DHT22;17258;52.560;13.046;2022-11-20T03:43:41;5.30;64.10
30467;DHT22;17258;52.560;13.046;2022-11-20T03:53:43;5.20;63.90
30467;DHT22;17258;52.560;13.046;2022-11-20T04:03:45;5.20;64.70
30467;DHT22;17258;52.560;13.046;2022-11-20T04:13:48;5.10;63.90
30467;DHT22;17258;52.560;13.046;2022-11-20T04:23:51;5.10;64.00
30467;DHT22;17258;52.560;13.046;2022-11-20T04:33:53;5.10;64.10
30467;DHT22;17258;52.560;13.046;2022-11-20T04:43:56;5.00;64.20
30467;DHT22;17258;52.560;13.046;2022-11-20T04:54:03;5.00;64.20
30467;DHT22;17258;52.560;13.046;2022-11-20T05:04:04;5.00;64.30
30467;DHT22;17258;52.560;13.046;2022-11-20T05:14:05;5.00;64.30
30467;DHT22;17258;52.560;13.046;2022-11-20T05:24:06;5.10;64.30
30467;DHT22;17258;52.560;13.046;2022-11-20T05:34:07;5.10;64.20
30467;DHT22;17258;52.560;13.046;2022-11-20T05:44:10;5.10;64.30
30467;DHT22;17258;52.560;13.046;2022-11-20T05:54:11;5.10;64.30
30467;DHT22;17258;52.560;13.046;2022-11-20T06:04:12;5.10;64.20
30467;DHT22;17258;52.560;13.046;2022-11-20T06:14:12;5.10;64.30
30467;DHT22;17258;52.560;13.046;2022-11-20T06:24:13;5.20;64.40
30467;DHT22;17258;52.560;13.046;2022-11-20T06:34:14;5.20;64.40
30467;DHT22;17258;52.560;13.046;2022-11-20T06:44:14;5.10;64.30
30467;DHT22;17258;52.560;13.046;2022-11-20T06:54:15;5.10;64.30
30467;DHT22;17258;52.560;13.046;2022-11-20T07:04:15;5.20;64.50
30467;DHT22;17258;52.560;13.046;2022-11-20T07:14:16;5.20;64.50
30467;DHT22;17258;52.560;13.046;2022-11-20T07:24:17;5.20;64.50
30467;DHT22;17258;52.560;13.046;2022-11-20T07:34:17;5.30;64.50
30467;DHT22;17258;52.560;13.046;2022-11-20T07:44:18;5.30;64.60
30467;DHT22;17258;52.560;13.046;2022-11-20T07:54:19;5.30;64.60
30467;DHT22;17258;52.560;13.046;2022-11-20T08:04:20;5.40;64.70
30467;DHT22;17258;52.560;13.046;2022-11-20T08:14:21;5.40;64.70
30467;DHT22;17258;52.560;13.046;2022-11-20T08:24:22;5.50;64.70
30467;DHT22;17258;52.560;13.046;2022-11-20T08:34:23;5.60;64.60
30467;DHT22;17258;52.560;13.046;2022-11-20T08:44:23;5.60;64.60
30467;DHT22;17258;52.560;13.046;2022-11-20T08:54:24;5.60;64.70
30467;DHT22;17258;52.560;13.046;2022-11-20T09:04:24;5.70;64.80
30467;DHT22;17258;52.560;13.046;2022-11-20T09:14:25;5.80;64.80
30467;DHT22;17258;52.560;13.046;2022-11-20T09:24:29;5.90;64.80
30467;DHT22;17258;52.560;13.046;2022-11-20T09:34:30;6.00;64.70
30467;DHT22;17258;52.560;13.046;2022-11-20T09:44:58;6.00;64.70
30467;DHT22;17258;52.560;13.046;2022-11-20T09:55:09;6.10;64.90
30467;DHT22;17258;52.560;13.046;2022-11-20T10:05:19;6.20;64.80
30467;DHT22;17258;52.560;13.046;2022-11-20T10:15:45;6.30;64.80
30467;DHT22;17258;52.560;13.046;2022-11-20T10:26:03;6.30;64.80
30467;DHT22;17258;52.560;13.046;2022-11-20T10:36:21;6.40;64.60
30467;DHT22;17258;52.560;13.046;2022-11-20T10:46:24;6.40;64.50
30467;DHT22;17258;52.560;13.046;2022-11-20T10:56:40;6.40;64.50
30467;DHT22;17258;52.560;13.046;2022-11-20T11:06:47;6.40;64.50
30467;DHT22;17258;52.560;13.046;2022-11-20T11:16:57;6.40;64.40
30467;DHT22;17258;52.560;13.046;2022-11-20T11:27:00;6.40;64.20
30467;DHT22;17258;52.560;13.046;2022-11-20T11:37:05;6.30;64.20
30467;DHT22;17258;52.560;13.046;2022-11-20T11:57:50;6.30;64.50
30467;DHT22;17258;52.560;13.046;2022-11-20T12:08:04;6.40;64.40
30467;DHT22;17258;52.560;13.046;2022-11-20T12:18:15;6.40;64.40
30467;DHT22;17258;52.560;13.046;2022-11-20T12:28:29;6.40;64.40
30467;DHT22;17258;52.560;13.046;2022-11-20T12:39:00;6.50;64.50
30467;DHT22;17258;52.560;13.046;2022-11-20T13:10:17;6.50;64.30
30467;DHT22;17258;52.560;13.046;2022-11-20T13:20:21;6.50;64.20
30467;DHT22;17258;52.560;13.046;2022-11-20T13:30:24;6.50;64.20
30467;DHT22;17258;52.560;13.046;2022-11-20T13:40:26;6.40;63.90
30467;DHT22;17258;52.560;13.046;2022-11-20T14:00:51;6.20;64.00
30467;DHT22;17258;52.560;13.046;2022-11-20T14:11:14;6.20;64.30
30467;DHT22;17258;52.560;13.046;2022-11-20T14:21:25;6.20;64.50
30467;DHT22;17258;52.560;13.046;2022-11-20T14:31:27;6.30;64.60
30467;DHT22;17258;52.560;13.046;2022-11-20T14:41:28;6.40;64.70
30467;DHT22;17258;52.560;13.046;2022-11-20T14:51:37;6.40;64.50
30467;DHT22;17258;52.560;13.046;2022-11-20T15:01:55;6.40;64.50
30467;DHT22;17258;52.560;13.046;2022-11-20T15:12:00;6.40;64.50
30467;DHT22;17258;52.560;13.046;2022-11-20T15:22:02;6.50;64.40
30467;DHT22;17258;52.560;13.046;2022-11-20T15:32:02;6.40;64.30
30467;DHT22;17258;52.560;13.046;2022-11-20T15:42:03;6.40;64.30
30467;DHT22;17258;52.560;13.046;2022-11-20T15:52:05;6.40;64.10
30467;DHT22;17258;52.560;13.046;2022-11-20T16:02:12;6.30;63.90
30467;DHT22;17258;52.560;13.046;2022-11-20T16:12:14;6.30;63.90
30467;DHT22;17258;52.560;13.046;2022-11-20T16:22:34;6.10;63.70
30467;DHT22;17258;52.560;13.046;2022-11-20T16:32:35;6.00;63.80
30467;DHT22;17258;52.560;13.046;2022-11-20T16:42:36;5.90;63.80
30467;DHT22;17258;52.560;13.046;2022-11-20T16:52:37;5.80;63.70
30467;DHT22;17258;52.560;13.046;2022-11-20T17:02:38;5.70;63.70
30467;DHT22;17258;52.560;13.046;2022-11-20T17:12:38;5.70;63.90
30467;DHT22;17258;52.560;13.046;2022-11-20T17:22:39;5.60;64.00
30467;DHT22;17258;52.560;13.046;2022-11-20T17:32:40;5.60;64.10
30467;DHT22;17258;52.560;13.046;2022-11-20T17:42:44;5.60;64.10
30467;DHT22;17258;52.560;13.046;2022-11-20T17:52:45;5.60;64.10
30467;DHT22;17258;52.560;13.046;2022-11-20T18:02:46;5.60;64.20
30467;DHT22;17258;52.560;13.046;2022-11-20T18:12:46;5.60;64.00
30467;DHT22;17258;52.560;13.046;2022-11-20T18:22:47;5.60;63.90
30467;DHT22;17258;52.560;13.046;2022-11-20T18:32:47;5.50;63.70
30467;DHT22;17258;52.560;13.046;2022-11-20T18:42:49;5.30;63.50
30467;DHT22;17258;52.560;13.046;2022-11-20T18:53:08;5.20;63.50
30467;DHT22;17258;52.560;13.046;2022-11-20T19:03:09;5.10;63.50
30467;DHT22;17258;52.560;13.046;2022-11-20T19:13:09;5.00;63.50
30467;DHT22;17258;52.560;13.046;2022-11-20T19:23:10;4.80;63.40
30467;DHT22;17258;52.560;13.046;2022-11-20T19:33:13;4.70;63.50
30467;DHT22;17258;52.560;13.046;2022-11-20T19:43:13;4.60;63.40
30467;DHT22;17258;52.560;13.046;2022-11-20T19:53:14;4.50;63.40
30467;DHT22;17258;52.560;13.046;2022-11-20T20:03:15;4.30;63.40
30467;DHT22;17258;52.560;13.046;2022-11-20T20:13:16;4.20;63.40
30467;DHT22;17258;52.560;13.046;2022-11-20T20:23:16;4.10;63.30
30467;DHT22;17258;52.560;13.046;2022-11-20T20:33:17;4.00;63.30
30467;DHT22;17258;52.560;13.046;2022-11-20T20:43:18;3.90;63.20
30467;DHT22;17258;52.560;13.046;2022-11-20T20:53:18;3.80;63.30
30467;DHT22;17258;52.560;13.046;2022-11-20T21:03:19;3.70;63.30
30467;DHT22;17258;52.560;13.046;2022-11-20T21:13:21;3.60;63.30
30467;DHT22;17258;52.560;13.046;2022-11-20T21:23:22;3.50;63.30
30467;DHT22;17258;52.560;13.046;2022-11-20T21:33:22;3.30;63.20
30467;DHT22;17258;52.560;13.046;2022-11-20T21:43:23;3.20;63.20
30467;DHT22;17258;52.560;13.046;2022-11-20T21:53:24;3.10;63.20
30467;DHT22;17258;52.560;13.046;2022-11-20T22:03:25;3.00;63.20
30467;DHT22;17258;52.560;13.046;2022-11-20T22:13:26;2.90;63.10
30467;DHT22;17258;52.560;13.046;2022-11-20T22:23:46;2.80;63.10
30467;DHT22;17258;52.560;13.046;2022-11-20T22:33:47;2.70;63.20
30467;DHT22;17258;52.560;13.046;2022-11-20T22:43:53;2.50;63.10
30467;DHT22;17258;52.560;13.046;2022-11-20T22:53:55;2.40;63.10
30467;DHT22;17258;52.560;13.046;2022-11-20T23:03:58;2.30;63.20
30467;DHT22;17258;52.560;13.046;2022-11-20T23:14:11;2.20;63.10
30467;DHT22;17258;52.560;13.046;2022-11-20T23:24:12;2.20;63.20
30467;DHT22;17258;52.560;13.046;2022-11-20T23:34:13;2.10;63.30
30467;DHT22;17258;52.560;13.046;2022-11-20T23:44:13;2.10;63.40
30467;DHT22;17258;52.560;13.046;2022-11-20T23:54:14;2.10;63.60
